Time;durP1;ratioP1;P1;durP2;ratioP2;P2;SDS_P1;SDS_P2;PMS_P1;PMS_P2;Temp;Humidity;BMP_temperature;BMP_pressure;BME280_temperature;BME280_humidity;BME280_pressure;Samples;Min_cycle;Max_cycle;Signal;HPM_P1;HPM_P2
2022/12/11 00:01:57;;;;;;;69.20;35.00;;;;;;;1.75;100.00;101260.88;5017851;28;20052;-78
2022/12/11 00:04:24;;;;;;;70.20;35.25;;;;;;;1.70;100.00;101257.72;5021214;28;20400;-78
2022/12/11 00:06:49;;;;;;;;;;;;;;;1.73;100.00;101258.34;5019036;28;21057;-78
2022/12/11 00:09:19;;;;;;;68.82;32.28;;;;;;;1.79;100.00;101252.41;5020508;28;19963;-78
2022/12/11 00:11:46;;;;;;;66.65;33.53;;;;;;;1.73;100.00;101250.22;5023283;28;20121;-77
2022/12/11 00:14:12;;;;;;;64.68;33.08;;;;;;;1.80;100.00;101253.25;5017629;28;20030;-79
2022/12/11 00:16:38;;;;;;;68.53;34.30;;;;;;;1.76;100.00;101241.84;5016968;28;20034;-78
2022/12/11 00:19:04;;;;;;;64.00;33.92;;;;;;;1.74;100.00;101246.53;5027777;28;20055;-78
2022/12/11 00:21:29;;;;;;;60.17;32.58;;;;;;;1.70;100.00;101236.97;5013291;28;20029;-76
2022/12/11 00:23:55;;;;;;;67.80;34.30;;;;;;;1.69;100.00;101245.22;5015619;28;20026;-78
2022/12/11 00:26:21;;;;;;;64.38;32.30;;;;;;;1.75;100.00;101247.38;5014837;28;20034;-77
2022/12/11 00:28:46;;;;;;;66.00;31.85;;;;;;;1.73;100.00;101250.22;5019077;28;20029;-77
2022/12/11 00:31:16;;;;;;;57.85;29.27;;;;;;;1.78;100.00;101255.22;5021144;28;20505;-77
2022/12/11 00:33:47;;;;;;;55.05;30.05;;;;;;;1.69;100.00;101256.00;5021453;28;20590;-76
2022/12/11 00:36:15;;;;;;;58.80;30.48;;;;;;;1.67;100.00;101264.22;5022179;28;20025;-78
2022/12/11 00:38:42;;;;;;;59.33;29.98;;;;;;;1.69;100.00;101258.69;5022214;28;20365;-77
2022/12/11 00:41:07;;;;;;;51.40;28.33;;;;;;;1.68;100.00;101263.28;5021630;28;20075;-77
2022/12/11 00:43:33;;;;;;;51.85;28.17;;;;;;;1.69;100.00;101259.56;5021247;28;20034;-78
2022/12/11 00:45:59;;;;;;;54.50;27.67;;;;;;;1.66;100.00;101250.88;5022456;28;20038;-75
2022/12/11 00:48:24;;;;;;;48.00;27.58;;;;;;;1.67;100.00;101245.34;5027475;28;20358;-76
2022/12/11 00:50:50;;;;;;;55.58;26.85;;;;;;;1.66;100.00;101242.78;5022221;28;20033;-76
2022/12/11 00:53:15;;;;;;;56.05;27.33;;;;;;;1.62;100.00;101247.56;5015305;28;20040;-76
2022/12/11 00:55:42;;;;;;;54.63;27.88;;;;;;;1.68;100.00;101246.19;5027300;28;20022;-77
2022/12/11 00:58:08;;;;;;;52.42;26.90;;;;;;;1.67;100.00;101244.50;5024263;28;20040;-79
2022/12/11 01:00:34;;;;;;;48.67;25.55;;;;;;;1.63;100.00;101243.91;5019425;28;20030;-78
2022/12/11 01:03:00;;;;;;;53.47;26.55;;;;;;;1.63;100.00;101248.44;5021270;28;20075;-78
2022/12/11 01:05:25;;;;;;;47.20;26.33;;;;;;;1.65;100.00;101247.31;5021640;28;20113;-79
2022/12/11 01:07:51;;;;;;;58.45;26.63;;;;;;;1.67;100.00;101245.34;5019520;28;20094;-79
2022/12/11 01:10:22;;;;;;;51.20;26.55;;;;;;;1.62;100.00;101242.16;5025770;28;20022;-77
2022/12/11 01:12:48;;;;;;;50.67;27.15;;;;;;;1.70;100.00;101246.91;5022348;28;20038;-79
2022/12/11 01:15:14;;;;;;;54.65;28.55;;;;;;;1.61;100.00;101248.56;5023370;28;20068;-78
2022/12/11 01:17:39;;;;;;;49.33;26.17;;;;;;;1.62;100.00;101244.88;5029082;28;20092;-76
2022/12/11 01:20:05;;;;;;;57.42;28.30;;;;;;;1.57;100.00;101247.13;5021309;28;20055;-77
2022/12/11 01:22:31;;;;;;;47.47;26.08;;;;;;;1.56;100.00;101245.38;5021089;28;20026;-77
2022/12/11 01:24:56;;;;;;;45.00;25.30;;;;;;;1.57;100.00;101249.84;5019638;28;20061;-80
2022/12/11 01:27:22;;;;;;;49.88;26.35;;;;;;;1.62;100.00;101257.53;5023758;28;20464;-77
2022/12/11 01:29:48;;;;;;;54.72;27.50;;;;;;;1.61;100.00;101255.81;5023045;28;20080;-78
2022/12/11 01:32:14;;;;;;;58.35;28.10;;;;;;;1.60;100.00;101252.25;5026749;28;20057;-78
2022/12/11 01:34:39;;;;;;;46.97;25.30;;;;;;;1.59;100.00;101257.78;5024210;28;20132;-78
2022/12/11 01:37:04;;;;;;;46.40;25.10;;;;;;;1.56;100.00;101249.94;5020349;28;20022;-78
2022/12/11 01:39:30;;;;;;;45.50;25.48;;;;;;;1.56;100.00;101252.66;5021055;28;20030;-77
2022/12/11 01:41:57;;;;;;;55.78;27.58;;;;;;;1.56;100.00;101247.25;5024147;28;20116;-77
2022/12/11 01:44:22;;;;;;;53.63;26.70;;;;;;;1.53;100.00;101248.38;5025797;28;20021;-78
2022/12/11 01:46:47;;;;;;;49.95;24.90;;;;;;;1.52;100.00;101248.50;5027612;28;20044;-75
2022/12/11 01:49:16;;;;;;;44.88;23.88;;;;;;;1.52;100.00;101243.09;5018389;28;20088;-79
2022/12/11 01:52:04;;;;;;;44.45;22.23;;;;;;;1.55;100.00;101240.16;5021860;28;20017;-77
2022/12/11 01:54:31;;;;;;;39.28;21.83;;;;;;;1.46;100.00;101233.66;5024974;28;20064;-76
2022/12/11 01:57:01;;;;;;;40.63;22.23;;;;;;;1.49;100.00;101229.84;5021338;28;20421;-78
2022/12/11 01:59:29;;;;;;;39.30;21.33;;;;;;;1.48;100.00;101241.63;5017151;28;20041;-78
2022/12/11 02:01:59;;;;;;;37.97;21.45;;;;;;;1.57;100.00;101238.16;5020398;28;20500;-76
2022/12/11 02:04:26;;;;;;;35.95;20.80;;;;;;;1.51;100.00;101242.22;5027507;28;20492;-78
2022/12/11 02:06:51;;;;;;;;;;;;;;;1.53;100.00;101242.97;5017967;28;20381;-76
2022/12/11 02:09:27;;;;;;;40.15;20.65;;;;;;;1.53;100.00;101237.56;5019042;28;19917;-79
2022/12/11 02:12:40;;;;;;;39.42;21.52;;;;;;;1.51;100.00;101247.63;5017051;28;20037;-77
2022/12/11 02:15:31;;;;;;;46.65;23.00;;;;;;;1.51;100.00;101244.09;4958072;28;20042;-79
2022/12/11 02:18:41;;;;;;;45.20;22.90;;;;;;;1.48;100.00;101252.44;5026715;28;20068;-78
2022/12/11 02:21:18;;;;;;;48.88;24.00;;;;;;;1.44;100.00;101243.75;5015584;28;20034;-77
2022/12/11 02:24:14;;;;;;;38.55;19.65;;;;;;;1.44;100.00;101242.91;5016583;28;21055;-78
2022/12/11 02:26:59;;;;;;;44.45;25.55;;;;;;;1.47;100.00;101242.63;5024040;28;20033;-78
2022/12/11 02:29:32;;;;;;;46.80;25.77;;;;;;;1.50;100.00;101243.22;5023052;28;20474;-78
2022/12/11 02:32:12;;;;;;;48.65;25.23;;;;;;;1.49;100.00;101237.94;5017636;28;20637;-78
2022/12/11 02:34:48;;;;;;;45.05;24.55;;;;;;;1.52;100.00;101240.41;5018397;28;20057;-76
2022/12/11 02:37:22;;;;;;;47.83;24.75;;;;;;;1.47;100.00;101227.31;5015702;28;20033;-78
2022/12/11 02:39:51;;;;;;;47.05;24.05;;;;;;;1.51;100.00;101227.91;5032042;28;20018;-75
2022/12/11 02:42:18;;;;;;;53.28;26.25;;;;;;;1.55;100.00;101223.97;5022129;28;20473;-79
2022/12/11 02:44:47;;;;;;;49.65;25.55;;;;;;;1.58;100.00;101223.69;5018254;28;20030;-77
2022/12/11 02:47:15;;;;;;;41.42;22.65;;;;;;;1.63;100.00;101221.44;5024000;28;20115;-77
2022/12/11 02:49:43;;;;;;;47.38;24.83;;;;;;;1.54;100.00;101222.22;5020653;28;20033;-77
2022/12/11 02:52:13;;;;;;;50.97;24.98;;;;;;;1.59;100.00;101223.56;5018184;28;20030;-78
2022/12/11 02:54:43;;;;;;;48.00;24.98;;;;;;;1.54;100.00;101219.53;5016400;28;20128;-78
2022/12/11 02:57:14;;;;;;;47.15;24.38;;;;;;;1.52;100.00;101216.97;5019391;28;20026;-77
2022/12/11 02:59:42;;;;;;;47.65;24.63;;;;;;;1.63;100.00;101216.03;5022494;28;20678;-78
2022/12/11 03:02:11;;;;;;;46.25;24.50;;;;;;;1.67;100.00;101209.41;5018517;28;20025;-78
2022/12/11 03:04:36;;;;;;;46.28;25.15;;;;;;;1.61;100.00;101207.22;5016559;28;20033;-78
2022/12/11 03:07:14;;;;;;;47.60;25.45;;;;;;;1.68;100.00;101211.97;5017698;28;20040;-77
2022/12/11 03:09:41;;;;;;;;;;;;;;;1.63;100.00;101211.50;5019085;28;20040;-77
2022/12/11 03:12:08;;;;;;;53.63;24.85;;;;;;;1.64;100.00;101199.72;5017179;28;19917;-77
2022/12/11 03:14:35;;;;;;;44.55;24.83;;;;;;;1.65;100.00;101204.13;5020573;28;20547;-78
2022/12/11 03:17:10;;;;;;;;;;;;;;;1.61;100.00;101201.84;5021055;28;20087;-77
2022/12/11 03:19:40;;;;;;;45.75;23.77;;;;;;;1.62;100.00;101207.06;5035503;28;19975;-77
2022/12/11 03:22:17;;;;;;;41.13;22.63;;;;;;;1.60;100.00;101203.66;5018605;28;20075;-78
2022/12/11 03:24:49;;;;;;;43.67;22.80;;;;;;;1.62;100.00;101198.13;5017187;28;20056;-77
2022/12/11 03:27:30;;;;;;;46.25;23.58;;;;;;;1.60;100.00;101203.66;5021803;28;20076;-78
2022/12/11 03:30:01;;;;;;;42.92;23.77;;;;;;;1.61;100.00;101201.84;5019030;28;20050;-77
2022/12/11 03:32:35;;;;;;;42.15;23.95;;;;;;;1.66;100.00;101196.91;5019267;28;20038;-77
2022/12/11 03:35:25;;;;;;;40.00;23.05;;;;;;;1.62;100.00;101200.84;5019242;28;20044;-75
2022/12/11 03:37:53;;;;;;;40.92;22.02;;;;;;;1.57;100.00;101194.97;5018803;28;20025;-77
2022/12/11 03:40:21;;;;;;;39.70;22.33;;;;;;;1.58;100.00;101196.69;5021955;28;20398;-77
2022/12/11 03:42:50;;;;;;;41.38;22.10;;;;;;;1.62;100.00;101187.34;5018750;28;20099;-77
2022/12/11 03:45:18;;;;;;;38.05;21.50;;;;;;;1.56;100.00;101191.41;5020227;28;20049;-77
2022/12/11 03:47:44;;;;;;;38.20;21.05;;;;;;;1.59;100.00;101188.47;5019326;28;20121;-77
2022/12/11 03:50:13;;;;;;;37.00;20.55;;;;;;;1.61;100.00;101182.94;5025053;28;20396;-77
2022/12/11 03:52:44;;;;;;;40.33;21.63;;;;;;;1.61;100.00;101181.06;5017910;28;20033;-78
2022/12/11 03:55:12;;;;;;;41.00;21.17;;;;;;;1.57;100.00;101184.19;5014547;28;20065;-77
2022/12/11 03:57:38;;;;;;;34.67;18.42;;;;;;;1.57;100.00;101178.78;5021679;28;20029;-76
2022/12/11 04:00:16;;;;;;;38.22;19.52;;;;;;;1.56;100.00;101179.78;5018137;28;20374;-76
2022/12/11 04:02:42;;;;;;;36.00;18.75;;;;;;;1.55;100.00;101181.59;5018513;28;20021;-79
2022/12/11 04:05:09;;;;;;;28.50;17.63;;;;;;;1.50;100.00;101170.34;5021444;28;20034;-77
2022/12/11 04:07:34;;;;;;;31.50;18.23;;;;;;;1.50;100.00;101170.34;5022378;28;20543;-78
2022/12/11 04:10:01;;;;;;;30.95;17.60;;;;;;;1.54;100.00;101173.63;5024071;28;20133;-77
2022/12/11 04:12:26;;;;;;;32.75;18.67;;;;;;;1.47;100.00;101167.94;5019099;28;20523;-78
2022/12/11 04:15:01;;;;;;;30.40;17.00;;;;;;;1.47;100.00;101170.63;5022321;28;20034;-77
2022/12/11 04:25:41;;;;;;;33.92;18.35;;;;;;;1.51;100.00;101168.53;5023718;28;20120;-76
2022/12/11 04:28:07;;;;;;;33.58;17.25;;;;;;;1.50;100.00;101159.56;5022965;28;20033;-77
2022/12/11 04:30:32;;;;;;;31.90;17.75;;;;;;;1.53;100.00;101169.22;5022537;28;20464;-77
2022/12/11 04:32:58;;;;;;;36.72;18.60;;;;;;;1.57;100.00;101162.59;5021951;28;20025;-77
2022/12/11 04:35:23;;;;;;;31.48;18.48;;;;;;;1.49;100.00;101165.94;5026257;28;20079;-77
2022/12/11 04:37:48;;;;;;;33.22;18.38;;;;;;;1.56;100.00;101174.38;5024670;28;20431;-76
2022/12/11 04:40:17;;;;;;;38.55;21.25;;;;;;;1.58;100.00;101172.41;5022432;28;20050;-77
2022/12/11 04:42:43;;;;;;;37.92;19.52;;;;;;;1.46;100.00;101168.91;5020534;28;20064;-77
2022/12/11 04:45:09;;;;;;;37.53;22.67;;;;;;;1.46;100.00;101166.19;5007580;28;20058;-78
2022/12/11 04:47:36;;;;;;;41.78;23.33;;;;;;;1.45;100.00;101163.66;5024330;28;20053;-75
2022/12/11 04:50:04;;;;;;;50.95;25.23;;;;;;;1.51;100.00;101168.53;5020478;28;20480;-77
2022/12/11 04:52:30;;;;;;;43.28;24.08;;;;;;;1.56;100.00;101168.97;5025459;28;20413;-76
2022/12/11 04:54:55;;;;;;;49.13;25.83;;;;;;;1.49;100.00;101167.78;5017784;28;20037;-78
2022/12/11 04:57:21;;;;;;;49.35;25.98;;;;;;;1.47;100.00;101169.75;5022788;28;20026;-76
2022/12/11 04:59:47;;;;;;;45.95;24.20;;;;;;;1.48;100.00;101166.94;5032119;28;20029;-77
2022/12/11 05:02:14;;;;;;;46.73;25.40;;;;;;;1.46;100.00;101159.97;5021630;28;20021;-77
2022/12/11 05:04:40;;;;;;;46.42;25.50;;;;;;;1.47;100.00;101170.63;5022987;28;20029;-77
2022/12/11 05:07:05;;;;;;;48.85;23.92;;;;;;;1.44;100.00;101160.09;5025173;28;20040;-79
2022/12/11 05:09:30;;;;;;;46.70;25.05;;;;;;;1.44;100.00;101164.66;5021210;28;20121;-77
2022/12/11 05:11:56;;;;;;;47.53;24.33;;;;;;;1.54;100.00;101162.84;5022124;28;20030;-77
2022/12/11 05:14:21;;;;;;;47.40;25.52;;;;;;;1.50;100.00;101161.41;5026784;28;20463;-77
2022/12/11 05:16:47;;;;;;;44.38;24.35;;;;;;;1.52;100.00;101160.31;5019767;28;20083;-77
2022/12/11 05:19:13;;;;;;;45.50;24.10;;;;;;;1.47;100.00;101156.28;5023708;28;20052;-77
2022/12/11 05:21:38;;;;;;;50.72;23.83;;;;;;;1.44;100.00;101164.66;5025156;28;20150;-77
2022/12/11 05:24:05;;;;;;;43.67;23.38;;;;;;;1.43;100.00;101149.41;5025813;28;20040;-79
2022/12/11 05:26:30;;;;;;;44.50;24.52;;;;;;;1.43;100.00;101152.13;5027044;28;20029;-75
2022/12/11 05:28:56;;;;;;;48.20;24.30;;;;;;;1.49;100.00;101163.25;5023916;28;20033;-77
2022/12/11 05:31:24;;;;;;;48.45;23.80;;;;;;;1.43;100.00;101155.69;5026139;28;20040;-77
2022/12/11 05:33:50;;;;;;;48.75;25.17;;;;;;;1.40;100.00;101152.41;5020674;28;20038;-78
2022/12/11 05:36:31;;;;;;;41.90;22.73;;;;;;;1.51;100.00;101152.31;5019412;28;20035;-78
2022/12/11 05:38:57;;;;;;;46.55;23.95;;;;;;;1.40;100.00;101147.84;5019965;28;20030;-76
2022/12/11 05:41:29;;;;;;;46.80;24.48;;;;;;;1.43;100.00;101150.28;5023823;28;20108;-78
2022/12/11 05:43:54;;;;;;;45.55;22.80;;;;;;;1.38;100.00;101148.94;5020482;28;20029;-77
2022/12/11 05:46:24;;;;;;;47.20;23.05;;;;;;;1.41;100.00;101146.88;5019294;28;20053;-76
2022/12/11 05:48:52;;;;;;;45.13;23.08;;;;;;;1.41;100.00;101140.59;5023339;28;20040;-76
2022/12/11 05:51:20;;;;;;;43.85;23.17;;;;;;;1.43;100.00;101138.63;5020461;28;20044;-77
2022/12/11 05:53:48;;;;;;;47.80;23.15;;;;;;;1.47;100.00;101142.78;5017176;28;20032;-76
2022/12/11 05:56:17;;;;;;;46.47;21.25;;;;;;;1.50;100.00;101140.66;5008826;28;20038;-77
2022/12/11 05:58:44;;;;;;;45.10;22.83;;;;;;;1.47;100.00;101150.88;5023243;28;20034;-77
2022/12/11 06:01:18;;;;;;;41.53;22.65;;;;;;;1.38;100.00;101152.53;5018422;28;20053;-77
2022/12/11 06:03:44;;;;;;;42.22;21.92;;;;;;;1.44;100.00;101159.25;5002061;28;21117;-77
2022/12/11 06:06:10;;;;;;;48.13;22.83;;;;;;;1.40;100.00;101157.78;5023235;28;20144;-76
2022/12/11 06:08:35;;;;;;;40.30;21.83;;;;;;;1.53;100.00;101158.44;5021252;28;20588;-78
2022/12/11 06:11:01;;;;;;;42.38;22.30;;;;;;;1.49;100.00;101157.84;5012834;28;20037;-77
2022/12/11 06:13:27;;;;;;;42.97;20.92;;;;;;;1.43;100.00;101155.69;5001454;28;20041;-77
2022/12/11 06:15:52;;;;;;;45.15;23.08;;;;;;;1.44;100.00;101160.09;5019073;28;20025;-76
2022/12/11 06:18:17;;;;;;;46.78;24.42;;;;;;;1.49;100.00;101165.06;5016476;28;20040;-77
2022/12/11 06:20:43;;;;;;;44.17;23.50;;;;;;;1.39;100.00;101154.22;5017442;28;20083;-76
2022/12/11 06:23:09;;;;;;;43.72;21.95;;;;;;;1.44;100.00;101161.94;5016148;28;20049;-78
2022/12/11 06:25:37;;;;;;;43.78;22.75;;;;;;;1.45;100.00;101153.69;5020664;28;20416;-76
2022/12/11 06:28:02;;;;;;;40.95;22.60;;;;;;;1.41;100.00;101148.69;5001103;28;20431;-78
2022/12/11 06:30:28;;;;;;;42.45;22.67;;;;;;;1.48;100.00;101157.97;5018906;28;20026;-77
2022/12/11 06:32:53;;;;;;;45.65;23.92;;;;;;;1.44;100.00;101161.94;5021172;28;20045;-74
2022/12/11 06:35:18;;;;;;;44.67;23.85;;;;;;;1.41;100.00;101162.19;5017502;28;20398;-76
2022/12/11 06:37:44;;;;;;;46.20;23.77;;;;;;;1.40;100.00;101160.50;5018852;28;20029;-76
2022/12/11 06:40:11;;;;;;;43.47;23.67;;;;;;;1.47;100.00;101157.13;5022271;28;20045;-77
2022/12/11 06:42:37;;;;;;;45.83;24.27;;;;;;;1.42;100.00;101150.41;5002867;28;20103;-76
2022/12/11 06:45:04;;;;;;;45.50;23.95;;;;;;;1.39;100.00;101156.09;5020978;28;20033;-76
2022/12/11 06:47:30;;;;;;;44.65;25.23;;;;;;;1.45;100.00;101156.41;5014639;28;20073;-75
2022/12/11 06:49:55;;;;;;;43.30;23.92;;;;;;;1.47;100.00;101161.66;5017363;28;20489;-78
2022/12/11 06:52:22;;;;;;;42.53;23.50;;;;;;;1.40;100.00;101152.41;5013568;28;20512;-78
2022/12/11 06:54:48;;;;;;;;;;;;;;;1.43;100.00;101162.91;5018126;28;20048;-77
2022/12/11 06:57:14;;;;;;;41.00;19.77;;;;;;;1.46;99.91;101159.97;5021557;28;19913;-78
2022/12/11 06:59:39;;;;;;;35.35;20.00;;;;;;;1.47;99.78;101150.88;5018905;28;20103;-77
2022/12/11 07:02:05;;;;;;;38.70;20.35;;;;;;;1.41;100.00;101146.00;5020111;28;20026;-77
2022/12/11 07:04:31;;;;;;;37.33;20.70;;;;;;;1.41;100.00;101154.97;5016152;28;20026;-76
2022/12/11 07:06:56;;;;;;;37.50;20.73;;;;;;;1.37;100.00;101153.50;5008880;28;20148;-74
2022/12/11 07:09:23;;;;;;;36.25;20.48;;;;;;;1.36;100.00;101148.25;5011487;28;20025;-78
2022/12/11 07:11:49;;;;;;;37.72;20.35;;;;;;;1.36;100.00;101149.13;5015380;28;20125;-76
2022/12/11 07:14:15;;;;;;;40.45;21.40;;;;;;;1.31;100.00;101145.09;5014510;28;20068;-78
2022/12/11 07:16:40;;;;;;;35.97;19.38;;;;;;;1.32;100.00;101147.66;5011026;28;20029;-77
2022/12/11 07:19:06;;;;;;;36.30;20.42;;;;;;;1.45;100.00;101148.28;5011756;28;20037;-77
2022/12/11 07:21:32;;;;;;;38.33;21.85;;;;;;;1.50;100.00;101145.22;5012986;28;20032;-76
2022/12/11 07:23:58;;;;;;;42.75;22.65;;;;;;;1.41;100.00;101146.00;5007463;28;20033;-76
2022/12/11 07:26:27;;;;;;;37.28;21.73;;;;;;;1.43;100.00;101149.41;5014891;28;20037;-75
2022/12/11 07:28:56;;;;;;;42.22;21.48;;;;;;;1.39;100.00;101150.69;5020584;28;20048;-75
2022/12/11 07:31:25;;;;;;;39.22;22.15;;;;;;;1.42;100.00;101153.09;5019927;28;20029;-78
2022/12/11 07:34:00;;;;;;;40.67;22.33;;;;;;;1.45;100.00;101156.41;5014103;28;20033;-76
2022/12/11 07:36:26;;;;;;;43.20;22.35;;;;;;;1.50;100.00;101158.72;5017705;28;20485;-76
2022/12/11 07:38:52;;;;;;;42.72;22.95;;;;;;;1.47;100.00;101167.06;5015748;28;20109;-76
2022/12/11 07:41:18;;;;;;;41.42;21.60;;;;;;;1.48;100.00;101163.38;5016377;28;20493;-77
2022/12/11 07:43:44;;;;;;;42.90;22.40;;;;;;;1.49;100.00;101165.94;5019695;28;20017;-75
2022/12/11 07:46:14;;;;;;;43.25;22.65;;;;;;;1.55;100.00;101162.72;5011917;28;20493;-75
2022/12/11 07:48:42;;;;;;;39.47;22.55;;;;;;;1.48;100.00;101164.25;5012410;28;20033;-75
2022/12/11 07:51:16;;;;;;;45.58;22.40;;;;;;;1.39;100.00;101159.63;5017942;28;20048;-78
2022/12/11 07:53:47;;;;;;;47.38;22.98;;;;;;;1.43;100.00;101168.31;5017885;28;20057;-75
2022/12/11 07:56:13;;;;;;;40.70;22.40;;;;;;;1.49;100.00;101167.78;5015090;28;20060;-77
2022/12/11 07:58:38;;;;;;;37.80;17.63;;;;;;;1.49;100.00;101173.16;5016468;28;20041;-76
2022/12/11 08:01:25;;;;;;;40.00;22.02;;;;;;;1.51;100.00;101168.53;5019470;28;20088;-78
2022/12/11 08:03:52;;;;;;;40.75;22.48;;;;;;;1.48;100.00;101172.34;5021275;28;20026;-77
2022/12/11 08:06:20;;;;;;;39.92;22.15;;;;;;;1.45;100.00;101172.59;5018488;28;20139;-79
2022/12/11 08:08:46;;;;;;;35.05;20.63;;;;;;;1.42;100.00;101175.56;5015749;28;20065;-77
2022/12/11 08:11:13;;;;;;;44.30;21.45;;;;;;;1.44;100.00;101172.75;5019813;28;20034;-76
2022/12/11 08:13:40;;;;;;;40.63;22.10;;;;;;;1.48;100.00;101174.16;5018829;28;20503;-78
2022/12/11 08:16:08;;;;;;;39.90;21.85;;;;;;;1.41;100.00;101170.28;5022026;28;20534;-75
2022/12/11 08:18:35;;;;;;;39.70;21.42;;;;;;;1.52;100.00;101170.22;5020588;28;20029;-74
2022/12/11 08:21:08;;;;;;;;;;;;;;;1.46;100.00;101168.91;5015751;28;20030;-76
2022/12/11 08:23:33;;;;;;;42.90;21.65;;;;;;;1.53;100.00;101164.69;5011112;28;19928;-77
2022/12/11 08:26:02;;;;;;;42.60;21.20;;;;;;;1.59;100.00;101166.88;5017520;28;20385;-78
2022/12/11 08:28:27;;;;;;;38.88;20.80;;;;;;;1.47;100.00;101164.38;5016293;28;20095;-77
2022/12/11 08:30:52;;;;;;;37.65;20.35;;;;;;;1.53;100.00;101166.53;5017549;28;20065;-75
2022/12/11 08:33:18;;;;;;;42.20;21.17;;;;;;;1.56;100.00;101167.13;5018707;28;20041;-78
2022/12/11 08:35:45;;;;;;;42.13;21.05;;;;;;;1.54;100.00;101163.72;5019282;28;20037;-78
2022/12/11 08:38:10;;;;;;;40.88;22.00;;;;;;;1.54;100.00;101168.25;5015572;28;20033;-77
2022/12/11 08:40:36;;;;;;;45.83;22.25;;;;;;;1.47;100.00;101165.22;5017250;28;20396;-78
2022/12/11 08:43:01;;;;;;;47.20;22.95;;;;;;;1.53;100.00;101183.59;5019611;28;20022;-78
2022/12/11 08:45:26;;;;;;;36.85;22.10;;;;;;;1.60;100.00;101167.75;5017884;28;20033;-79
2022/12/11 08:47:52;;;;;;;37.80;20.65;;;;;;;1.55;100.00;101170.81;5017536;28;20052;-76
2022/12/11 08:50:18;;;;;;;38.22;21.25;;;;;;;1.55;100.00;101169.97;5013331;28;20059;-77
2022/12/11 08:52:44;;;;;;;41.92;22.05;;;;;;;1.56;100.00;101175.22;5022352;28;20026;-77
2022/12/11 08:55:09;;;;;;;40.85;20.35;;;;;;;1.56;100.00;101172.50;5017030;28;20069;-78
2022/12/11 08:57:34;;;;;;;42.42;21.88;;;;;;;1.58;100.00;101169.69;5018269;28;20076;-78
2022/12/11 09:00:00;;;;;;;42.95;21.27;;;;;;;1.52;100.00;101170.22;5018543;28;20029;-77
2022/12/11 09:02:25;;;;;;;36.08;19.95;;;;;;;1.54;100.00;101168.25;5022323;28;20488;-78
2022/12/11 09:04:51;;;;;;;43.78;21.50;;;;;;;1.52;100.00;101170.22;5022865;28;20079;-77
2022/12/11 09:07:16;;;;;;;33.55;19.60;;;;;;;1.50;100.00;101164.94;5017857;28;20033;-78
2022/12/11 09:09:42;;;;;;;48.33;21.67;;;;;;;1.61;100.00;101162.19;5019330;28;20041;-77
2022/12/11 09:12:07;;;;;;;44.58;21.67;;;;;;;1.56;100.00;101163.59;5022429;28;20068;-77
2022/12/11 09:14:33;;;;;;;40.55;20.52;;;;;;;1.57;100.00;101160.75;5021359;28;20030;-77
2022/12/11 09:16:58;;;;;;;40.33;20.35;;;;;;;1.59;100.00;101163.31;5020319;28;20461;-77
2022/12/11 09:19:24;;;;;;;41.40;21.52;;;;;;;1.61;100.00;101164.03;5016741;28;20037;-77
2022/12/11 09:21:49;;;;;;;47.38;22.27;;;;;;;1.66;100.00;101164.50;5022600;28;20374;-75
2022/12/11 09:24:14;;;;;;;39.17;21.88;;;;;;;1.61;100.00;101158.66;5015886;28;20113;-77
2022/12/11 09:26:41;;;;;;;43.70;21.50;;;;;;;1.67;100.00;101152.72;5017045;28;20040;-75
2022/12/11 09:29:06;;;;;;;43.70;21.20;;;;;;;1.61;100.00;101158.66;5019575;28;20021;-77
2022/12/11 09:31:34;;;;;;;47.80;21.23;;;;;;;1.68;100.00;101167.91;5023428;28;20081;-77
2022/12/11 09:34:03;;;;;;;46.40;22.67;;;;;;;1.68;100.00;101146.31;5016413;28;20500;-78
2022/12/11 09:36:29;;;;;;;47.83;23.33;;;;;;;1.75;100.00;101147.47;5019325;28;20037;-76
2022/12/11 09:38:54;;;;;;;45.03;22.00;;;;;;;1.69;100.00;101156.13;5015897;28;20033;-77
2022/12/11 09:41:19;;;;;;;50.75;24.38;;;;;;;1.75;100.00;101158.28;5019464;28;20126;-77
2022/12/11 09:43:47;;;;;;;44.03;21.75;;;;;;;1.78;100.00;101160.72;5019011;28;20468;-78
2022/12/11 09:46:15;;;;;;;45.80;21.30;;;;;;;1.84;100.00;101165.59;5021075;28;20033;-76
2022/12/11 09:48:44;;;;;;;45.22;23.60;;;;;;;1.77;100.00;101159.84;5035176;28;20073;-77
2022/12/11 09:51:29;;;;;;;46.55;22.42;;;;;;;1.76;100.00;101152.75;5016104;28;20042;-77
2022/12/11 09:53:59;;;;;;;50.05;24.10;;;;;;;1.76;100.00;101154.63;5016832;28;20107;-78
2022/12/11 09:56:32;;;;;;;50.75;23.85;;;;;;;1.77;100.00;101164.41;5015334;28;20495;-77
2022/12/11 09:59:24;;;;;;;50.65;22.92;;;;;;;1.85;100.00;101159.19;5019692;28;20078;-78
2022/12/11 10:01:56;;;;;;;59.15;23.70;;;;;;;1.79;100.00;101154.34;5014795;28;20365;-77
2022/12/11 10:04:53;;;;;;;54.97;24.77;;;;;;;1.82;100.00;101143.28;5024333;28;20068;-75
2022/12/11 10:07:50;;;;;;;60.53;24.48;;;;;;;1.78;100.00;101156.16;5015964;28;20044;-79
2022/12/11 10:10:53;;;;;;;48.33;23.73;;;;;;;1.85;100.00;101151.09;5020225;28;20025;-79
2022/12/11 10:13:47;;;;;;;56.58;25.63;;;;;;;1.83;100.00;101158.47;5017963;28;20445;-78
2022/12/11 10:16:29;;;;;;;51.38;25.25;;;;;;;1.77;100.00;101153.63;5011707;28;20405;-77
2022/12/11 10:18:54;;;;;;;57.47;25.58;;;;;;;1.77;100.00;101151.75;5017586;28;20030;-78
2022/12/11 10:21:20;;;;;;;57.67;26.00;;;;;;;1.77;100.00;101140.97;5015972;28;20043;-74
2022/12/11 10:23:55;;;;;;;58.10;24.15;;;;;;;1.77;100.00;101150.94;5023087;28;20021;-77
2022/12/11 10:26:22;;;;;;;57.28;26.08;;;;;;;1.76;100.00;101135.72;5019007;28;20068;-78
2022/12/11 10:28:48;;;;;;;60.90;26.20;;;;;;;1.81;100.00;101137.00;5018527;28;20424;-76
2022/12/11 10:31:27;;;;;;;53.10;24.00;;;;;;;1.80;100.00;101139.84;5019695;28;20293;-79
2022/12/11 10:33:57;;;;;;;62.92;27.02;;;;;;;1.82;100.00;101137.88;5017508;28;20369;-78
2022/12/11 10:36:33;;;;;;;64.28;26.38;;;;;;;1.85;100.00;101134.88;5018306;28;20038;-78
2022/12/11 10:38:58;;;;;;;57.60;25.45;;;;;;;1.85;100.00;101140.28;5018252;28;20018;-78
2022/12/11 10:41:36;;;;;;;62.33;25.58;;;;;;;1.76;100.00;101136.56;5020312;28;20114;-77
2022/12/11 10:44:17;;;;;;;62.28;26.20;;;;;;;1.82;100.00;101135.19;5020199;28;20052;-78
2022/12/11 10:46:44;;;;;;;63.13;26.77;;;;;;;1.87;100.00;101135.63;5020858;28;20048;-76
2022/12/11 10:49:24;;;;;;;61.53;27.40;;;;;;;1.93;100.00;101126.97;5014571;28;20495;-78
2022/12/11 10:51:51;;;;;;;55.55;24.77;;;;;;;1.91;100.00;101123.53;5015588;28;20064;-78
2022/12/11 10:54:30;;;;;;;64.03;26.67;;;;;;;1.87;100.00;101119.44;5020092;28;20092;-78
2022/12/11 10:56:55;;;;;;;59.08;25.73;;;;;;;1.93;100.00;101117.00;5016799;28;20480;-76
2022/12/11 10:59:49;;;;;;;58.70;27.77;;;;;;;1.88;100.00;101118.44;5020220;28;20033;-78
2022/12/11 11:02:25;;;;;;;58.80;25.02;;;;;;;2.00;100.00;101122.75;5019012;28;20049;-80
2022/12/11 11:04:51;;;;;;;55.90;25.63;;;;;;;1.87;100.00;101116.72;5019815;28;20362;-75
2022/12/11 11:07:16;;;;;;;56.97;26.50;;;;;;;1.96;100.00;101126.69;5022123;28;20033;-78
2022/12/11 11:09:42;;;;;;;62.28;28.05;;;;;;;1.91;100.00;101112.75;5016455;28;20070;-77
2022/12/11 11:12:23;;;;;;;60.25;26.27;;;;;;;1.99;100.00;101115.63;5023196;28;20030;-78
2022/12/11 11:15:13;;;;;;;58.88;26.52;;;;;;;1.89;100.00;101115.59;5019835;28;20481;-77
2022/12/11 11:17:45;;;;;;;60.47;26.75;;;;;;;1.93;100.00;101118.88;5016881;28;20385;-79
2022/12/11 11:20:15;;;;;;;62.38;29.30;;;;;;;1.85;100.00;101111.47;5021571;28;20116;-77
2022/12/11 11:22:45;;;;;;;65.03;27.35;;;;;;;1.88;100.00;101113.03;5017936;28;20131;-76
2022/12/11 11:25:22;;;;;;;67.90;26.73;;;;;;;1.88;100.00;101107.63;5011883;28;20060;-77
2022/12/11 11:28:10;;;;;;;59.88;28.65;;;;;;;1.91;100.00;101110.03;5014814;28;20025;-77
2022/12/11 11:30:40;;;;;;;60.70;27.10;;;;;;;1.92;100.00;101103.69;5024791;28;20451;-79